sensor_id;sensor_type;location;lat;lon;timestamp;P1;durP1;ratioP1;P2;durP2;ratioP2
48588;SDS011;34369;51.174;6.738;2023-08-31T00:02:25;31.83;;;29.55;;
48588;SDS011;34369;51.174;6.738;2023-08-31T00:04:57;31.88;;;29.88;;
48588;SDS011;34369;51.174;6.738;2023-08-31T00:07:29;31.75;;;29.60;;
48588;SDS011;34369;51.174;6.738;2023-08-31T00:10:02;31.73;;;29.52;;
48588;SDS011;34369;51.174;6.738;2023-08-31T00:12:39;32.10;;;30.00;;
48588;SDS011;34369;51.174;6.738;2023-08-31T00:15:12;32.22;;;30.13;;
48588;SDS011;34369;51.174;6.738;2023-08-31T00:17:44;32.25;;;30.00;;
48588;SDS011;34369;51.174;6.738;2023-08-31T00:20:16;32.35;;;30.20;;
48588;SDS011;34369;51.174;6.738;2023-08-31T00:22:48;32.35;;;30.13;;
48588;SDS011;34369;51.174;6.738;2023-08-31T00:25:22;31.60;;;29.38;;
48588;SDS011;34369;51.174;6.738;2023-08-31T00:27:54;32.63;;;30.52;;
48588;SDS011;34369;51.174;6.738;2023-08-31T00:30:29;30.73;;;28.52;;
48588;SDS011;34369;51.174;6.738;2023-08-31T00:33:02;31.88;;;29.67;;
48588;SDS011;34369;51.174;6.738;2023-08-31T00:35:34;32.92;;;30.73;;
48588;SDS011;34369;51.174;6.738;2023-08-31T00:38:07;32.15;;;30.13;;
48588;SDS011;34369;51.174;6.738;2023-08-31T00:40:40;32.28;;;30.08;;
48588;SDS011;34369;51.174;6.738;2023-08-31T00:43:14;32.40;;;30.30;;
48588;SDS011;34369;51.174;6.738;2023-08-31T00:45:50;32.83;;;30.60;;
48588;SDS011;34369;51.174;6.738;2023-08-31T00:48:27;31.95;;;29.85;;
48588;SDS011;34369;51.174;6.738;2023-08-31T00:50:59;32.45;;;30.40;;
48588;SDS011;34369;51.174;6.738;2023-08-31T00:53:33;32.40;;;30.00;;
48588;SDS011;34369;51.174;6.738;2023-08-31T00:56:05;32.47;;;30.27;;
48588;SDS011;34369;51.174;6.738;2023-08-31T00:58:37;33.85;;;31.55;;
48588;SDS011;34369;51.174;6.738;2023-08-31T01:01:14;33.33;;;31.02;;
48588;SDS011;34369;51.174;6.738;2023-08-31T01:03:58;31.58;;;29.50;;
48588;SDS011;34369;51.174;6.738;2023-08-31T01:06:46;33.00;;;30.90;;
48588;SDS011;34369;51.174;6.738;2023-08-31T01:09:27;33.65;;;31.30;;
48588;SDS011;34369;51.174;6.738;2023-08-31T01:12:07;32.90;;;30.55;;
48588;SDS011;34369;51.174;6.738;2023-08-31T01:14:44;31.88;;;29.75;;
48588;SDS011;34369;51.174;6.738;2023-08-31T01:17:23;32.38;;;30.17;;
48588;SDS011;34369;51.174;6.738;2023-08-31T01:19:58;31.75;;;29.55;;
48588;SDS011;34369;51.174;6.738;2023-08-31T01:22:33;32.45;;;30.35;;
48588;SDS011;34369;51.174;6.738;2023-08-31T01:25:16;33.67;;;31.38;;
48588;SDS011;34369;51.174;6.738;2023-08-31T01:27:49;33.10;;;30.90;;
48588;SDS011;34369;51.174;6.738;2023-08-31T01:30:24;32.67;;;30.33;;
48588;SDS011;34369;51.174;6.738;2023-08-31T01:32:56;32.38;;;30.27;;
48588;SDS011;34369;51.174;6.738;2023-08-31T01:35:29;33.47;;;31.33;;
48588;SDS011;34369;51.174;6.738;2023-08-31T01:38:06;33.20;;;31.00;;
48588;SDS011;34369;51.174;6.738;2023-08-31T01:40:43;31.70;;;29.60;;
48588;SDS011;34369;51.174;6.738;2023-08-31T01:43:21;33.53;;;31.42;;
48588;SDS011;34369;51.174;6.738;2023-08-31T01:45:55;32.65;;;30.55;;
48588;SDS011;34369;51.174;6.738;2023-08-31T01:48:29;33.38;;;31.27;;
48588;SDS011;34369;51.174;6.738;2023-08-31T01:51:02;34.28;;;32.05;;
48588;SDS011;34369;51.174;6.738;2023-08-31T01:53:35;34.33;;;32.13;;
48588;SDS011;34369;51.174;6.738;2023-08-31T01:56:11;33.70;;;31.20;;
48588;SDS011;34369;51.174;6.738;2023-08-31T01:58:43;33.53;;;31.42;;
48588;SDS011;34369;51.174;6.738;2023-08-31T02:01:16;33.75;;;31.65;;
48588;SDS011;34369;51.174;6.738;2023-08-31T02:03:48;33.15;;;31.05;;
48588;SDS011;34369;51.174;6.738;2023-08-31T02:06:21;34.70;;;32.40;;
48588;SDS011;34369;51.174;6.738;2023-08-31T02:08:53;34.05;;;31.75;;
48588;SDS011;34369;51.174;6.738;2023-08-31T02:11:27;32.20;;;30.02;;
48588;SDS011;34369;51.174;6.738;2023-08-31T02:14:05;35.17;;;32.97;;
48588;SDS011;34369;51.174;6.738;2023-08-31T02:16:37;33.60;;;31.40;;
48588;SDS011;34369;51.174;6.738;2023-08-31T02:19:10;33.28;;;31.08;;
48588;SDS011;34369;51.174;6.738;2023-08-31T02:21:42;34.30;;;32.10;;
48588;SDS011;34369;51.174;6.738;2023-08-31T02:24:15;33.90;;;31.67;;
48588;SDS011;34369;51.174;6.738;2023-08-31T02:26:49;33.17;;;31.02;;
48588;SDS011;34369;51.174;6.738;2023-08-31T02:29:21;33.50;;;31.15;;
48588;SDS011;34369;51.174;6.738;2023-08-31T02:31:54;34.55;;;32.45;;
48588;SDS011;34369;51.174;6.738;2023-08-31T02:34:26;34.50;;;32.33;;
48588;SDS011;34369;51.174;6.738;2023-08-31T02:36:58;32.97;;;30.83;;
48588;SDS011;34369;51.174;6.738;2023-08-31T02:39:32;33.13;;;31.05;;
48588;SDS011;34369;51.174;6.738;2023-08-31T02:42:06;35.33;;;33.13;;
48588;SDS011;34369;51.174;6.738;2023-08-31T02:44:39;34.67;;;32.55;;
48588;SDS011;34369;51.174;6.738;2023-08-31T02:47:11;33.42;;;31.27;;
48588;SDS011;34369;51.174;6.738;2023-08-31T02:49:43;35.92;;;33.53;;
48588;SDS011;34369;51.174;6.738;2023-08-31T02:52:18;34.15;;;31.92;;
48588;SDS011;34369;51.174;6.738;2023-08-31T02:54:50;34.78;;;32.33;;
48588;SDS011;34369;51.174;6.738;2023-08-31T02:57:23;32.35;;;30.35;;
48588;SDS011;34369;51.174;6.738;2023-08-31T02:59:58;32.08;;;30.00;;
48588;SDS011;34369;51.174;6.738;2023-08-31T03:02:30;32.92;;;30.88;;
48588;SDS011;34369;51.174;6.738;2023-08-31T03:05:04;33.03;;;30.92;;
48588;SDS011;34369;51.174;6.738;2023-08-31T03:07:37;33.75;;;31.55;;
48588;SDS011;34369;51.174;6.738;2023-08-31T03:10:09;32.95;;;30.95;;
48588;SDS011;34369;51.174;6.738;2023-08-31T03:12:43;33.28;;;31.08;;
48588;SDS011;34369;51.174;6.738;2023-08-31T03:15:15;33.58;;;31.35;;
48588;SDS011;34369;51.174;6.738;2023-08-31T03:17:48;32.72;;;30.63;;
48588;SDS011;34369;51.174;6.738;2023-08-31T03:20:21;34.03;;;31.73;;
48588;SDS011;34369;51.174;6.738;2023-08-31T03:22:53;32.45;;;30.35;;
48588;SDS011;34369;51.174;6.738;2023-08-31T03:25:27;33.22;;;31.13;;
48588;SDS011;34369;51.174;6.738;2023-08-31T03:28:00;32.83;;;30.83;;
48588;SDS011;34369;51.174;6.738;2023-08-31T03:30:32;33.55;;;31.45;;
48588;SDS011;34369;51.174;6.738;2023-08-31T03:33:06;33.85;;;31.65;;
48588;SDS011;34369;51.174;6.738;2023-08-31T03:35:41;33.90;;;31.77;;
48588;SDS011;34369;51.174;6.738;2023-08-31T03:38:13;33.40;;;31.20;;
48588;SDS011;34369;51.174;6.738;2023-08-31T03:40:52;34.22;;;31.92;;
48588;SDS011;34369;51.174;6.738;2023-08-31T03:43:27;33.58;;;31.48;;
48588;SDS011;34369;51.174;6.738;2023-08-31T03:45:59;34.45;;;32.25;;
48588;SDS011;34369;51.174;6.738;2023-08-31T03:48:32;34.15;;;32.05;;
48588;SDS011;34369;51.174;6.738;2023-08-31T03:51:07;34.53;;;32.33;;
48588;SDS011;34369;51.174;6.738;2023-08-31T03:53:39;32.85;;;30.75;;
48588;SDS011;34369;51.174;6.738;2023-08-31T03:56:11;34.58;;;32.38;;
48588;SDS011;34369;51.174;6.738;2023-08-31T03:58:45;33.60;;;31.30;;
48588;SDS011;34369;51.174;6.738;2023-08-31T04:01:17;33.85;;;31.45;;
48588;SDS011;34369;51.174;6.738;2023-08-31T04:03:49;33.47;;;31.38;;
48588;SDS011;34369;51.174;6.738;2023-08-31T04:06:21;33.67;;;31.55;;
48588;SDS011;34369;51.174;6.738;2023-08-31T04:08:53;35.00;;;32.70;;
48588;SDS011;34369;51.174;6.738;2023-08-31T04:11:26;35.53;;;33.22;;
48588;SDS011;34369;51.174;6.738;2023-08-31T04:14:00;35.00;;;32.67;;
48588;SDS011;34369;51.174;6.738;2023-08-31T04:16:32;36.10;;;33.88;;
48588;SDS011;34369;51.174;6.738;2023-08-31T04:19:06;33.22;;;31.00;;
48588;SDS011;34369;51.174;6.738;2023-08-31T04:21:39;35.10;;;32.90;;
48588;SDS011;34369;51.174;6.738;2023-08-31T04:24:12;34.90;;;32.67;;
48588;SDS011;34369;51.174;6.738;2023-08-31T04:26:44;33.85;;;31.65;;
48588;SDS011;34369;51.174;6.738;2023-08-31T04:29:19;36.85;;;33.50;;
48588;SDS011;34369;51.174;6.738;2023-08-31T04:31:53;34.80;;;32.65;;
48588;SDS011;34369;51.174;6.738;2023-08-31T04:34:25;35.10;;;32.80;;
48588;SDS011;34369;51.174;6.738;2023-08-31T04:36:58;32.97;;;30.90;;
48588;SDS011;34369;51.174;6.738;2023-08-31T04:39:31;35.65;;;33.35;;
48588;SDS011;34369;51.174;6.738;2023-08-31T04:42:03;34.42;;;32.20;;
48588;SDS011;34369;51.174;6.738;2023-08-31T04:44:38;35.92;;;33.63;;
48588;SDS011;34369;51.174;6.738;2023-08-31T04:47:11;35.20;;;32.90;;
48588;SDS011;34369;51.174;6.738;2023-08-31T04:49:44;35.22;;;32.92;;
48588;SDS011;34369;51.174;6.738;2023-08-31T04:52:16;34.92;;;32.72;;
48588;SDS011;34369;51.174;6.738;2023-08-31T04:54:56;34.70;;;32.30;;
48588;SDS011;34369;51.174;6.738;2023-08-31T04:57:28;34.63;;;32.42;;
48588;SDS011;34369;51.174;6.738;2023-08-31T05:00:02;36.05;;;33.85;;
48588;SDS011;34369;51.174;6.738;2023-08-31T05:02:39;36.33;;;33.97;;
48588;SDS011;34369;51.174;6.738;2023-08-31T05:05:13;34.42;;;32.22;;
48588;SDS011;34369;51.174;6.738;2023-08-31T05:07:48;35.40;;;33.20;;
48588;SDS011;34369;51.174;6.738;2023-08-31T05:10:23;35.90;;;33.63;;
48588;SDS011;34369;51.174;6.738;2023-08-31T05:12:59;35.10;;;32.80;;
48588;SDS011;34369;51.174;6.738;2023-08-31T05:15:36;34.88;;;32.58;;
48588;SDS011;34369;51.174;6.738;2023-08-31T05:18:08;36.60;;;34.17;;
48588;SDS011;34369;51.174;6.738;2023-08-31T05:20:44;35.35;;;33.05;;
48588;SDS011;34369;51.174;6.738;2023-08-31T05:23:18;34.55;;;32.22;;
48588;SDS011;34369;51.174;6.738;2023-08-31T05:25:51;34.90;;;32.70;;
48588;SDS011;34369;51.174;6.738;2023-08-31T05:28:23;35.38;;;33.00;;
48588;SDS011;34369;51.174;6.738;2023-08-31T05:30:57;35.22;;;32.92;;
48588;SDS011;34369;51.174;6.738;2023-08-31T05:33:35;37.15;;;34.65;;
48588;SDS011;34369;51.174;6.738;2023-08-31T05:36:07;35.67;;;33.28;;
48588;SDS011;34369;51.174;6.738;2023-08-31T05:38:40;35.90;;;33.42;;
48588;SDS011;34369;51.174;6.738;2023-08-31T05:41:13;36.05;;;33.65;;
48588;SDS011;34369;51.174;6.738;2023-08-31T05:43:47;34.67;;;32.38;;
48588;SDS011;34369;51.174;6.738;2023-08-31T05:46:23;34.85;;;32.63;;
48588;SDS011;34369;51.174;6.738;2023-08-31T05:48:55;35.05;;;32.65;;
48588;SDS011;34369;51.174;6.738;2023-08-31T05:51:27;34.50;;;32.20;;
48588;SDS011;34369;51.174;6.738;2023-08-31T05:54:00;36.28;;;33.65;;
48588;SDS011;34369;51.174;6.738;2023-08-31T05:56:33;35.35;;;33.05;;
48588;SDS011;34369;51.174;6.738;2023-08-31T05:59:06;33.28;;;31.17;;
48588;SDS011;34369;51.174;6.738;2023-08-31T06:01:40;33.80;;;31.65;;
48588;SDS011;34369;51.174;6.738;2023-08-31T06:04:14;34.58;;;32.38;;
48588;SDS011;34369;51.174;6.738;2023-08-31T06:06:47;33.97;;;31.67;;
48588;SDS011;34369;51.174;6.738;2023-08-31T06:09:22;33.72;;;31.42;;
48588;SDS011;34369;51.174;6.738;2023-08-31T06:11:54;35.00;;;32.80;;
48588;SDS011;34369;51.174;6.738;2023-08-31T06:14:40;35.03;;;32.63;;
48588;SDS011;34369;51.174;6.738;2023-08-31T06:17:15;34.13;;;31.75;;
48588;SDS011;34369;51.174;6.738;2023-08-31T06:19:47;33.97;;;31.85;;
48588;SDS011;34369;51.174;6.738;2023-08-31T06:22:30;33.75;;;31.40;;
48588;SDS011;34369;51.174;6.738;2023-08-31T06:25:25;34.53;;;32.10;;
48588;SDS011;34369;51.174;6.738;2023-08-31T06:28:00;34.38;;;32.08;;
48588;SDS011;34369;51.174;6.738;2023-08-31T06:30:41;34.03;;;31.73;;
48588;SDS011;34369;51.174;6.738;2023-08-31T06:33:19;33.00;;;30.80;;
48588;SDS011;34369;51.174;6.738;2023-08-31T06:35:52;33.22;;;31.13;;
48588;SDS011;34369;51.174;6.738;2023-08-31T06:38:25;33.10;;;30.95;;
48588;SDS011;34369;51.174;6.738;2023-08-31T06:40:57;34.33;;;32.03;;
48588;SDS011;34369;51.174;6.738;2023-08-31T06:43:31;32.60;;;30.50;;
48588;SDS011;34369;51.174;6.738;2023-08-31T06:46:04;33.75;;;31.27;;
48588;SDS011;34369;51.174;6.738;2023-08-31T06:48:38;32.35;;;30.20;;
48588;SDS011;34369;51.174;6.738;2023-08-31T06:51:10;32.97;;;30.77;;
48588;SDS011;34369;51.174;6.738;2023-08-31T06:53:44;33.08;;;30.88;;
48588;SDS011;34369;51.174;6.738;2023-08-31T06:56:19;33.33;;;31.23;;
48588;SDS011;34369;51.174;6.738;2023-08-31T06:58:51;33.75;;;31.58;;
48588;SDS011;34369;51.174;6.738;2023-08-31T07:01:24;31.85;;;29.58;;
48588;SDS011;34369;51.174;6.738;2023-08-31T07:03:58;33.75;;;31.65;;
48588;SDS011;34369;51.174;6.738;2023-08-31T07:06:38;31.40;;;29.13;;
48588;SDS011;34369;51.174;6.738;2023-08-31T07:09:17;34.30;;;32.10;;
48588;SDS011;34369;51.174;6.738;2023-08-31T07:11:50;32.58;;;30.38;;
48588;SDS011;34369;51.174;6.738;2023-08-31T07:14:22;33.05;;;30.85;;
48588;SDS011;34369;51.174;6.738;2023-08-31T07:16:56;32.55;;;30.25;;
48588;SDS011;34369;51.174;6.738;2023-08-31T07:19:50;31.75;;;29.73;;
48588;SDS011;34369;51.174;6.738;2023-08-31T07:22:24;31.95;;;29.85;;
48588;SDS011;34369;51.174;6.738;2023-08-31T07:24:57;32.60;;;30.40;;
48588;SDS011;34369;51.174;6.738;2023-08-31T07:27:29;31.90;;;29.80;;
48588;SDS011;34369;51.174;6.738;2023-08-31T07:30:02;32.42;;;30.25;;
48588;SDS011;34369;51.174;6.738;2023-08-31T07:32:36;31.05;;;29.02;;
48588;SDS011;34369;51.174;6.738;2023-08-31T07:35:12;31.02;;;28.92;;
48588;SDS011;34369;51.174;6.738;2023-08-31T07:37:46;29.83;;;27.83;;
48588;SDS011;34369;51.174;6.738;2023-08-31T07:40:19;31.27;;;29.17;;
48588;SDS011;34369;51.174;6.738;2023-08-31T07:42:51;31.25;;;28.95;;
48588;SDS011;34369;51.174;6.738;2023-08-31T07:45:24;30.60;;;28.60;;
48588;SDS011;34369;51.174;6.738;2023-08-31T07:47:57;30.23;;;28.23;;
48588;SDS011;34369;51.174;6.738;2023-08-31T07:50:32;30.67;;;28.58;;
48588;SDS011;34369;51.174;6.738;2023-08-31T07:53:06;31.03;;;29.03;;
48588;SDS011;34369;51.174;6.738;2023-08-31T07:55:50;29.48;;;27.48;;
48588;SDS011;34369;51.174;6.738;2023-08-31T07:58:25;29.38;;;27.48;;
48588;SDS011;34369;51.174;6.738;2023-08-31T08:00:57;28.85;;;26.95;;
48588;SDS011;34369;51.174;6.738;2023-08-31T08:03:30;29.15;;;27.17;;
48588;SDS011;34369;51.174;6.738;2023-08-31T08:06:04;28.20;;;26.30;;
48588;SDS011;34369;51.174;6.738;2023-08-31T08:08:37;27.88;;;25.98;;
48588;SDS011;34369;51.174;6.738;2023-08-31T08:11:09;28.38;;;26.42;;
48588;SDS011;34369;51.174;6.738;2023-08-31T08:13:43;28.45;;;26.52;;
48588;SDS011;34369;51.174;6.738;2023-08-31T08:16:16;29.10;;;27.10;;
48588;SDS011;34369;51.174;6.738;2023-08-31T08:18:49;28.25;;;26.35;;
48588;SDS011;34369;51.174;6.738;2023-08-31T08:21:23;28.05;;;25.98;;
48588;SDS011;34369;51.174;6.738;2023-08-31T08:24:02;28.48;;;26.48;;
48588;SDS011;34369;51.174;6.738;2023-08-31T08:26:55;27.80;;;25.90;;
48588;SDS011;34369;51.174;6.738;2023-08-31T08:29:41;26.95;;;24.95;;
48588;SDS011;34369;51.174;6.738;2023-08-31T08:32:14;26.25;;;24.27;;
48588;SDS011;34369;51.174;6.738;2023-08-31T08:34:47;25.58;;;23.77;;
48588;SDS011;34369;51.174;6.738;2023-08-31T08:37:24;26.02;;;24.20;;
48588;SDS011;34369;51.174;6.738;2023-08-31T08:39:57;26.10;;;24.20;;
48588;SDS011;34369;51.174;6.738;2023-08-31T08:42:29;25.70;;;23.88;;
48588;SDS011;34369;51.174;6.738;2023-08-31T08:45:04;24.80;;;23.10;;
48588;SDS011;34369;51.174;6.738;2023-08-31T08:50:12;23.75;;;22.00;;
48588;SDS011;34369;51.174;6.738;2023-08-31T08:52:46;23.23;;;21.52;;
48588;SDS011;34369;51.174;6.738;2023-08-31T08:55:19;22.55;;;20.85;;
48588;SDS011;34369;51.174;6.738;2023-08-31T08:57:52;22.70;;;21.10;;
48588;SDS011;34369;51.174;6.738;2023-08-31T09:00:24;22.38;;;20.67;;
48588;SDS011;34369;51.174;6.738;2023-08-31T09:02:57;22.25;;;20.55;;
48588;SDS011;34369;51.174;6.738;2023-08-31T09:05:32;22.20;;;20.50;;
48588;SDS011;34369;51.174;6.738;2023-08-31T09:08:06;22.00;;;20.30;;
48588;SDS011;34369;51.174;6.738;2023-08-31T09:10:42;22.20;;;20.40;;
48588;SDS011;34369;51.174;6.738;2023-08-31T09:13:17;21.85;;;20.25;;
48588;SDS011;34369;51.174;6.738;2023-08-31T09:15:50;22.60;;;21.00;;
48588;SDS011;34369;51.174;6.738;2023-08-31T09:18:23;23.15;;;21.55;;
48588;SDS011;34369;51.174;6.738;2023-08-31T09:20:56;23.52;;;21.83;;
48588;SDS011;34369;51.174;6.738;2023-08-31T09:23:30;24.50;;;22.75;;
48588;SDS011;34369;51.174;6.738;2023-08-31T09:26:03;24.63;;;22.90;;
48588;SDS011;34369;51.174;6.738;2023-08-31T09:28:35;23.73;;;22.02;;
48588;SDS011;34369;51.174;6.738;2023-08-31T09:31:14;24.95;;;23.13;;
48588;SDS011;34369;51.174;6.738;2023-08-31T09:33:50;25.00;;;23.20;;
48588;SDS011;34369;51.174;6.738;2023-08-31T09:36:24;25.95;;;24.00;;
48588;SDS011;34369;51.174;6.738;2023-08-31T09:39:00;25.02;;;23.27;;
48588;SDS011;34369;51.174;6.738;2023-08-31T09:41:32;25.77;;;23.88;;
48588;SDS011;34369;51.174;6.738;2023-08-31T09:44:15;26.90;;;24.80;;
48588;SDS011;34369;51.174;6.738;2023-08-31T09:46:58;25.13;;;23.13;;
48588;SDS011;34369;51.174;6.738;2023-08-31T09:49:36;25.70;;;23.70;;
48588;SDS011;34369;51.174;6.738;2023-08-31T09:52:13;25.52;;;23.73;;
48588;SDS011;34369;51.174;6.738;2023-08-31T09:57:45;25.60;;;23.73;;
48588;SDS011;34369;51.174;6.738;2023-08-31T10:00:37;25.50;;;23.70;;
48588;SDS011;34369;51.174;6.738;2023-08-31T10:03:11;25.88;;;24.00;;
48588;SDS011;34369;51.174;6.738;2023-08-31T10:05:46;25.45;;;23.65;;
48588;SDS011;34369;51.174;6.738;2023-08-31T10:08:20;25.70;;;23.80;;
48588;SDS011;34369;51.174;6.738;2023-08-31T10:10:55;25.23;;;23.45;;
48588;SDS011;34369;51.174;6.738;2023-08-31T10:13:31;25.35;;;23.48;;
48588;SDS011;34369;51.174;6.738;2023-08-31T10:16:08;25.17;;;23.30;;
48588;SDS011;34369;51.174;6.738;2023-08-31T10:18:41;25.30;;;23.50;;
48588;SDS011;34369;51.174;6.738;2023-08-31T10:21:15;25.20;;;23.40;;
48588;SDS011;34369;51.174;6.738;2023-08-31T10:23:49;25.80;;;23.90;;
48588;SDS011;34369;51.174;6.738;2023-08-31T10:26:25;25.70;;;23.75;;
48588;SDS011;34369;51.174;6.738;2023-08-31T10:29:00;25.90;;;24.05;;
48588;SDS011;34369;51.174;6.738;2023-08-31T10:31:36;24.25;;;22.50;;
48588;SDS011;34369;51.174;6.738;2023-08-31T10:34:09;24.33;;;22.42;;
48588;SDS011;34369;51.174;6.738;2023-08-31T10:36:44;24.67;;;22.85;;
48588;SDS011;34369;51.174;6.738;2023-08-31T10:39:18;25.25;;;23.08;;
48588;SDS011;34369;51.174;6.738;2023-08-31T10:41:56;25.00;;;23.10;;
48588;SDS011;34369;51.174;6.738;2023-08-31T10:44:33;25.25;;;23.35;;
48588;SDS011;34369;51.174;6.738;2023-08-31T10:47:06;25.13;;;23.33;;
48588;SDS011;34369;51.174;6.738;2023-08-31T10:49:42;25.40;;;23.40;;
48588;SDS011;34369;51.174;6.738;2023-08-31T10:52:23;25.50;;;23.50;;
48588;SDS011;34369;51.174;6.738;2023-08-31T10:54:57;25.33;;;23.52;;
48588;SDS011;34369;51.174;6.738;2023-08-31T10:57:39;26.27;;;24.27;;
48588;SDS011;34369;51.174;6.738;2023-08-31T11:00:13;25.55;;;23.63;;
48588;SDS011;34369;51.174;6.738;2023-08-31T11:03:24;25.42;;;23.38;;
48588;SDS011;34369;51.174;6.738;2023-08-31T11:06:02;25.13;;;23.23;;
48588;SDS011;34369;51.174;6.738;2023-08-31T11:08:42;26.27;;;24.20;;
48588;SDS011;34369;51.174;6.738;2023-08-31T11:11:19;25.13;;;23.23;;
48588;SDS011;34369;51.174;6.738;2023-08-31T11:14:01;24.88;;;23.15;;
48588;SDS011;34369;51.174;6.738;2023-08-31T11:16:33;25.25;;;23.35;;
48588;SDS011;34369;51.174;6.738;2023-08-31T11:19:05;25.48;;;23.67;;
48588;SDS011;34369;51.174;6.738;2023-08-31T11:21:39;25.50;;;23.60;;
48588;SDS011;34369;51.174;6.738;2023-08-31T11:24:12;25.77;;;23.88;;
48588;SDS011;34369;51.174;6.738;2023-08-31T11:26:44;26.52;;;24.65;;
48588;SDS011;34369;51.174;6.738;2023-08-31T11:29:20;25.92;;;24.02;;
48588;SDS011;34369;51.174;6.738;2023-08-31T11:31:55;25.88;;;24.08;;
48588;SDS011;34369;51.174;6.738;2023-08-31T11:34:30;26.10;;;24.15;;
48588;SDS011;34369;51.174;6.738;2023-08-31T11:37:03;26.15;;;24.23;;
48588;SDS011;34369;51.174;6.738;2023-08-31T11:39:36;26.30;;;24.25;;
48588;SDS011;34369;51.174;6.738;2023-08-31T11:42:10;25.98;;;24.05;;
48588;SDS011;34369;51.174;6.738;2023-08-31T11:44:45;26.02;;;23.85;;
48588;SDS011;34369;51.174;6.738;2023-08-31T11:47:18;25.23;;;23.33;;
48588;SDS011;34369;51.174;6.738;2023-08-31T11:49:55;24.48;;;22.75;;
48588;SDS011;34369;51.174;6.738;2023-08-31T11:52:28;25.00;;;23.20;;
48588;SDS011;34369;51.174;6.738;2023-08-31T11:55:01;25.23;;;23.33;;
48588;SDS011;34369;51.174;6.738;2023-08-31T11:57:47;24.92;;;22.92;;
48588;SDS011;34369;51.174;6.738;2023-08-31T12:00:26;24.67;;;22.77;;
48588;SDS011;34369;51.174;6.738;2023-08-31T12:02:58;23.77;;;21.98;;
48588;SDS011;34369;51.174;6.738;2023-08-31T12:05:44;23.80;;;22.10;;
48588;SDS011;34369;51.174;6.738;2023-08-31T12:08:23;23.52;;;21.63;;
48588;SDS011;34369;51.174;6.738;2023-08-31T12:10:58;23.55;;;21.90;;
48588;SDS011;34369;51.174;6.738;2023-08-31T12:13:33;23.85;;;21.95;;
48588;SDS011;34369;51.174;6.738;2023-08-31T12:16:12;23.90;;;22.00;;
48588;SDS011;34369;51.174;6.738;2023-08-31T12:18:46;23.75;;;21.95;;
48588;SDS011;34369;51.174;6.738;2023-08-31T12:21:19;23.88;;;22.17;;
48588;SDS011;34369;51.174;6.738;2023-08-31T12:23:51;23.95;;;22.30;;
48588;SDS011;34369;51.174;6.738;2023-08-31T12:26:24;23.10;;;21.40;;
48588;SDS011;34369;51.174;6.738;2023-08-31T12:28:57;23.10;;;21.30;;
48588;SDS011;34369;51.174;6.738;2023-08-31T12:31:31;22.83;;;21.13;;
48588;SDS011;34369;51.174;6.738;2023-08-31T12:34:03;22.70;;;20.95;;
48588;SDS011;34369;51.174;6.738;2023-08-31T12:36:36;22.90;;;20.98;;
48588;SDS011;34369;51.174;6.738;2023-08-31T12:39:11;22.67;;;20.92;;
48588;SDS011;34369;51.174;6.738;2023-08-31T12:41:43;22.83;;;21.13;;
48588;SDS011;34369;51.174;6.738;2023-08-31T12:44:18;22.70;;;20.90;;
48588;SDS011;34369;51.174;6.738;2023-08-31T12:46:52;23.30;;;21.45;;
48588;SDS011;34369;51.174;6.738;2023-08-31T12:49:25;23.30;;;21.52;;
48588;SDS011;34369;51.174;6.738;2023-08-31T12:51:58;23.35;;;21.75;;
48588;SDS011;34369;51.174;6.738;2023-08-31T12:54:36;23.75;;;21.90;;
48588;SDS011;34369;51.174;6.738;2023-08-31T12:57:08;23.40;;;21.70;;
48588;SDS011;34369;51.174;6.738;2023-08-31T12:59:40;22.77;;;21.17;;
48588;SDS011;34369;51.174;6.738;2023-08-31T13:02:14;22.27;;;20.67;;
48588;SDS011;34369;51.174;6.738;2023-08-31T13:04:46;21.85;;;20.15;;
48588;SDS011;34369;51.174;6.738;2023-08-31T13:07:19;21.60;;;19.90;;
48588;SDS011;34369;51.174;6.738;2023-08-31T13:09:51;21.77;;;20.08;;
48588;SDS011;34369;51.174;6.738;2023-08-31T13:12:25;21.42;;;19.85;;
48588;SDS011;34369;51.174;6.738;2023-08-31T13:14:57;21.00;;;19.40;;
48588;SDS011;34369;51.174;6.738;2023-08-31T13:17:31;20.60;;;19.00;;
48588;SDS011;34369;51.174;6.738;2023-08-31T13:20:12;21.23;;;19.63;;
48588;SDS011;34369;51.174;6.738;2023-08-31T13:22:45;20.60;;;18.98;;
48588;SDS011;34369;51.174;6.738;2023-08-31T13:25:17;20.85;;;19.13;;
48588;SDS011;34369;51.174;6.738;2023-08-31T13:27:49;20.48;;;18.88;;
48588;SDS011;34369;51.174;6.738;2023-08-31T13:30:21;21.20;;;19.40;;
48588;SDS011;34369;51.174;6.738;2023-08-31T13:32:56;21.55;;;19.85;;
48588;SDS011;34369;51.174;6.738;2023-08-31T13:35:29;21.25;;;19.65;;
48588;SDS011;34369;51.174;6.738;2023-08-31T13:38:01;21.33;;;19.63;;
48588;SDS011;34369;51.174;6.738;2023-08-31T13:40:34;21.48;;;19.88;;
48588;SDS011;34369;51.174;6.738;2023-08-31T13:43:08;21.42;;;19.73;;
48588;SDS011;34369;51.174;6.738;2023-08-31T13:45:50;21.73;;;20.13;;
48588;SDS011;34369;51.174;6.738;2023-08-31T13:48:40;21.38;;;19.77;;
48588;SDS011;34369;51.174;6.738;2023-08-31T13:51:15;21.70;;;20.00;;
48588;SDS011;34369;51.174;6.738;2023-08-31T13:53:47;22.38;;;20.60;;
48588;SDS011;34369;51.174;6.738;2023-08-31T13:56:19;22.20;;;20.50;;
48588;SDS011;34369;51.174;6.738;2023-08-31T13:58:52;22.13;;;20.42;;
48588;SDS011;34369;51.174;6.738;2023-08-31T14:01:25;22.33;;;20.70;;
48588;SDS011;34369;51.174;6.738;2023-08-31T14:04:00;22.30;;;20.70;;
48588;SDS011;34369;51.174;6.738;2023-08-31T14:06:34;22.92;;;21.23;;
48588;SDS011;34369;51.174;6.738;2023-08-31T14:09:06;22.90;;;21.13;;
48588;SDS011;34369;51.174;6.738;2023-08-31T14:11:39;22.98;;;21.17;;
48588;SDS011;34369;51.174;6.738;2023-08-31T14:14:12;23.45;;;21.48;;
48588;SDS011;34369;51.174;6.738;2023-08-31T14:16:44;23.30;;;21.60;;
48588;SDS011;34369;51.174;6.738;2023-08-31T14:19:18;23.38;;;21.52;;
48588;SDS011;34369;51.174;6.738;2023-08-31T14:21:51;23.48;;;21.73;;
48588;SDS011;34369;51.174;6.738;2023-08-31T14:24:24;23.42;;;21.70;;
48588;SDS011;34369;51.174;6.738;2023-08-31T14:26:56;23.95;;;22.05;;
48588;SDS011;34369;51.174;6.738;2023-08-31T14:32:41;23.55;;;21.77;;
48588;SDS011;34369;51.174;6.738;2023-08-31T14:35:17;22.90;;;21.15;;
48588;SDS011;34369;51.174;6.738;2023-08-31T14:37:53;22.92;;;21.23;;
48588;SDS011;34369;51.174;6.738;2023-08-31T14:40:26;22.40;;;20.70;;
48588;SDS011;34369;51.174;6.738;2023-08-31T14:42:59;22.50;;;20.77;;
48588;SDS011;34369;51.174;6.738;2023-08-31T14:45:31;22.60;;;20.95;;
48588;SDS011;34369;51.174;6.738;2023-08-31T14:48:04;23.65;;;21.85;;
48588;SDS011;34369;51.174;6.738;2023-08-31T14:50:41;24.08;;;22.27;;
48588;SDS011;34369;51.174;6.738;2023-08-31T14:53:14;24.70;;;22.85;;
48588;SDS011;34369;51.174;6.738;2023-08-31T14:59:17;24.40;;;22.58;;
48588;SDS011;34369;51.174;6.738;2023-08-31T15:01:50;24.83;;;22.83;;
48588;SDS011;34369;51.174;6.738;2023-08-31T15:04:22;24.05;;;22.35;;
48588;SDS011;34369;51.174;6.738;2023-08-31T15:06:58;24.17;;;22.33;;
48588;SDS011;34369;51.174;6.738;2023-08-31T15:09:30;24.63;;;22.90;;
48588;SDS011;34369;51.174;6.738;2023-08-31T15:12:03;24.70;;;22.80;;
48588;SDS011;34369;51.174;6.738;2023-08-31T15:14:36;24.58;;;22.67;;
48588;SDS011;34369;51.174;6.738;2023-08-31T15:17:10;24.77;;;22.65;;